sensor_id;sensor_type;location;lat;lon;timestamp;pressure;altitude;pressure_sealevel;temperature;humidity
49102;BME280;34913;47.520;19.186;2023-08-07T00:01:10;99038.56;;;15.75;76.70
49102;BME280;34913;47.520;19.186;2023-08-07T00:03:36;99038.84;;;15.66;77.39
49102;BME280;34913;47.520;19.186;2023-08-07T00:06:01;99033.13;;;15.69;77.60
49102;BME280;34913;47.520;19.186;2023-08-07T00:08:27;99034.88;;;15.61;77.56
49102;BME280;34913;47.520;19.186;2023-08-07T00:10:52;99033.13;;;15.69;77.34
49102;BME280;34913;47.520;19.186;2023-08-07T00:13:18;99041.91;;;15.77;77.30
49102;BME280;34913;47.520;19.186;2023-08-07T00:15:44;99041.97;;;15.69;77.59
49102;BME280;34913;47.520;19.186;2023-08-07T00:18:09;99037.28;;;15.71;77.15
49102;BME280;34913;47.520;19.186;2023-08-07T00:20:35;99043.75;;;15.77;77.35
49102;BME280;34913;47.520;19.186;2023-08-07T00:23:00;99041.78;;;15.71;77.59
49102;BME280;34913;47.520;19.186;2023-08-07T00:25:26;99041.78;;;15.71;77.80
49102;BME280;34913;47.520;19.186;2023-08-07T00:27:52;99042.16;;;15.68;77.72
49102;BME280;34913;47.520;19.186;2023-08-07T00:30:18;99041.88;;;15.62;78.40
49102;BME280;34913;47.520;19.186;2023-08-07T00:32:43;99042.81;;;15.70;78.02
49102;BME280;34913;47.520;19.186;2023-08-07T00:35:08;99032.84;;;15.63;78.78
49102;BME280;34913;47.520;19.186;2023-08-07T00:37:34;99042.53;;;15.65;78.90
49102;BME280;34913;47.520;19.186;2023-08-07T00:39:59;99046.41;;;15.62;79.39
49102;BME280;34913;47.520;19.186;2023-08-07T00:42:25;99050.38;;;15.66;78.44
49102;BME280;34913;47.520;19.186;2023-08-07T00:44:50;99041.72;;;15.64;78.76
49102;BME280;34913;47.520;19.186;2023-08-07T00:47:16;99057.25;;;15.60;79.65
49102;BME280;34913;47.520;19.186;2023-08-07T00:49:41;99049.75;;;15.56;79.33
49102;BME280;34913;47.520;19.186;2023-08-07T00:52:07;99053.28;;;15.56;79.87
49102;BME280;34913;47.520;19.186;2023-08-07T00:54:33;99054.28;;;15.55;79.59
49102;BME280;34913;47.520;19.186;2023-08-07T00:57:11;99042.75;;;15.55;79.81
49102;BME280;34913;47.520;19.186;2023-08-07T00:59:38;99039.91;;;15.56;79.84
49102;BME280;34913;47.520;19.186;2023-08-07T01:02:04;99047.22;;;15.62;79.11
49102;BME280;34913;47.520;19.186;2023-08-07T01:04:31;99041.47;;;15.51;80.51
49102;BME280;34913;47.520;19.186;2023-08-07T01:06:56;99044.78;;;15.53;79.95
49102;BME280;34913;47.520;19.186;2023-08-07T01:09:22;99048.94;;;15.55;80.26
49102;BME280;34913;47.520;19.186;2023-08-07T01:11:57;99044.75;;;15.61;79.85
49102;BME280;34913;47.520;19.186;2023-08-07T01:17:17;99045.44;;;15.55;79.98
49102;BME280;34913;47.520;19.186;2023-08-07T01:19:44;99044.69;;;15.46;79.62
49102;BME280;34913;47.520;19.186;2023-08-07T01:22:11;99055.44;;;15.38;81.52
49102;BME280;34913;47.520;19.186;2023-08-07T01:24:41;99053.59;;;15.39;81.00
49102;BME280;34913;47.520;19.186;2023-08-07T01:27:14;99052.25;;;15.43;80.16
49102;BME280;34913;47.520;19.186;2023-08-07T01:32:19;99062.63;;;15.38;80.64
49102;BME280;34913;47.520;19.186;2023-08-07T01:34:47;99071.84;;;15.35;80.76
49102;BME280;34913;47.520;19.186;2023-08-07T01:37:13;99070.19;;;15.34;80.95
49102;BME280;34913;47.520;19.186;2023-08-07T01:39:39;99076.63;;;15.25;81.02
49102;BME280;34913;47.520;19.186;2023-08-07T01:42:06;99077.47;;;15.25;80.86
49102;BME280;34913;47.520;19.186;2023-08-07T01:44:32;99076.25;;;15.28;80.76
49102;BME280;34913;47.520;19.186;2023-08-07T01:46:57;99074.22;;;15.30;80.34
49102;BME280;34913;47.520;19.186;2023-08-07T01:49:23;99081.41;;;15.29;79.74
49102;BME280;34913;47.520;19.186;2023-08-07T01:51:48;99085.41;;;15.33;80.22
49102;BME280;34913;47.520;19.186;2023-08-07T01:54:14;99087.53;;;15.38;79.74
49102;BME280;34913;47.520;19.186;2023-08-07T01:56:40;99075.38;;;15.35;79.92
49102;BME280;34913;47.520;19.186;2023-08-07T01:59:05;99082.94;;;15.47;79.09
49102;BME280;34913;47.520;19.186;2023-08-07T02:01:30;99084.31;;;15.43;79.33
49102;BME280;34913;47.520;19.186;2023-08-07T02:03:57;99084.66;;;15.40;78.78
49102;BME280;34913;47.520;19.186;2023-08-07T02:06:23;99086.63;;;15.46;78.10
49102;BME280;34913;47.520;19.186;2023-08-07T02:08:48;99080.94;;;15.49;78.85
49102;BME280;34913;47.520;19.186;2023-08-07T02:11:14;99086.44;;;15.47;78.48
49102;BME280;34913;47.520;19.186;2023-08-07T02:13:39;99080.34;;;15.39;79.09
49102;BME280;34913;47.520;19.186;2023-08-07T02:16:05;99083.84;;;15.39;78.06
49102;BME280;34913;47.520;19.186;2023-08-07T02:18:30;99089.69;;;15.43;78.06
49102;BME280;34913;47.520;19.186;2023-08-07T02:20:55;99085.34;;;15.42;77.92
49102;BME280;34913;47.520;19.186;2023-08-07T02:23:21;99091.03;;;15.39;77.96
49102;BME280;34913;47.520;19.186;2023-08-07T02:25:48;99093.75;;;15.53;75.91
49102;BME280;34913;47.520;19.186;2023-08-07T02:28:13;99090.25;;;15.53;76.66
49102;BME280;34913;47.520;19.186;2023-08-07T02:30:39;99090.06;;;15.54;76.01
49102;BME280;34913;47.520;19.186;2023-08-07T02:33:04;99099.09;;;15.53;76.39
49102;BME280;34913;47.520;19.186;2023-08-07T02:35:30;99090.97;;;15.47;76.49
49102;BME280;34913;47.520;19.186;2023-08-07T02:37:55;99091.34;;;15.44;76.60
49102;BME280;34913;47.520;19.186;2023-08-07T02:40:20;99096.19;;;15.40;77.26
49102;BME280;34913;47.520;19.186;2023-08-07T02:42:46;99081.34;;;15.38;76.66
49102;BME280;34913;47.520;19.186;2023-08-07T02:45:11;99089.56;;;15.36;76.18
49102;BME280;34913;47.520;19.186;2023-08-07T02:47:36;99090.56;;;15.35;76.05
49102;BME280;34913;47.520;19.186;2023-08-07T02:50:02;99095.91;;;15.35;76.33
49102;BME280;34913;47.520;19.186;2023-08-07T02:52:27;99092.13;;;15.29;77.14
49102;BME280;34913;47.520;19.186;2023-08-07T02:54:53;99098.84;;;15.25;77.28
49102;BME280;34913;47.520;19.186;2023-08-07T02:57:18;99103.81;;;15.28;77.71
49102;BME280;34913;47.520;19.186;2023-08-07T02:59:44;99104.53;;;15.22;77.19
49102;BME280;34913;47.520;19.186;2023-08-07T03:02:09;99110.81;;;15.29;76.67
49102;BME280;34913;47.520;19.186;2023-08-07T03:04:35;99114.69;;;15.27;77.24
49102;BME280;34913;47.520;19.186;2023-08-07T03:07:00;99105.53;;;15.21;77.32
49102;BME280;34913;47.520;19.186;2023-08-07T03:09:26;99107.38;;;15.21;77.00
49102;BME280;34913;47.520;19.186;2023-08-07T03:11:51;99110.38;;;15.26;77.32
49102;BME280;34913;47.520;19.186;2023-08-07T03:14:17;99109.81;;;15.30;76.83
49102;BME280;34913;47.520;19.186;2023-08-07T03:16:42;99097.94;;;15.33;75.83
49102;BME280;34913;47.520;19.186;2023-08-07T03:19:07;99113.44;;;15.15;76.89
49102;BME280;34913;47.520;19.186;2023-08-07T03:21:33;99110.31;;;15.11;77.13
49102;BME280;34913;47.520;19.186;2023-08-07T03:23:58;99116.59;;;15.18;76.39
49102;BME280;34913;47.520;19.186;2023-08-07T03:26:24;99116.47;;;15.12;77.59
49102;BME280;34913;47.520;19.186;2023-08-07T03:28:49;99117.66;;;15.09;77.87
49102;BME280;34913;47.520;19.186;2023-08-07T03:31:15;99115.97;;;15.08;77.96
49102;BME280;34913;47.520;19.186;2023-08-07T03:33:40;99122.66;;;15.12;77.02
49102;BME280;34913;47.520;19.186;2023-08-07T03:36:06;99117.31;;;15.12;76.93
49102;BME280;34913;47.520;19.186;2023-08-07T03:38:32;99117.19;;;15.05;77.99
49102;BME280;34913;47.520;19.186;2023-08-07T03:40:57;99123.16;;;15.07;77.41
49102;BME280;34913;47.520;19.186;2023-08-07T03:43:23;99126.84;;;15.06;77.54
49102;BME280;34913;47.520;19.186;2023-08-07T03:45:54;99122.88;;;15.02;77.88
49102;BME280;34913;47.520;19.186;2023-08-07T03:48:19;99128.97;;;15.19;76.23
49102;BME280;34913;47.520;19.186;2023-08-07T03:50:45;99127.50;;;15.08;76.98
49102;BME280;34913;47.520;19.186;2023-08-07T03:53:10;99137.41;;;15.00;78.66
49102;BME280;34913;47.520;19.186;2023-08-07T03:55:36;99137.78;;;14.97;79.10
49102;BME280;34913;47.520;19.186;2023-08-07T03:58:02;99134.13;;;14.90;78.48
49102;BME280;34913;47.520;19.186;2023-08-07T04:00:27;99136.81;;;14.90;78.90
49102;BME280;34913;47.520;19.186;2023-08-07T04:02:53;99147.13;;;14.93;79.03
49102;BME280;34913;47.520;19.186;2023-08-07T04:05:18;99139.47;;;14.90;78.48
49102;BME280;34913;47.520;19.186;2023-08-07T04:07:43;99138.47;;;14.91;78.98
49102;BME280;34913;47.520;19.186;2023-08-07T04:10:09;99142.81;;;14.92;77.80
49102;BME280;34913;47.520;19.186;2023-08-07T04:12:34;99141.28;;;14.97;79.46
49102;BME280;34913;47.520;19.186;2023-08-07T04:15:00;99148.41;;;15.05;76.99
49102;BME280;34913;47.520;19.186;2023-08-07T04:17:25;99158.22;;;15.13;77.41
49102;BME280;34913;47.520;19.186;2023-08-07T04:19:51;99161.84;;;15.20;77.28
49102;BME280;34913;47.520;19.186;2023-08-07T04:22:17;99157.34;;;15.20;75.99
49102;BME280;34913;47.520;19.186;2023-08-07T04:24:42;99156.66;;;15.26;76.52
49102;BME280;34913;47.520;19.186;2023-08-07T04:27:08;99167.66;;;15.23;75.85
49102;BME280;34913;47.520;19.186;2023-08-07T04:29:33;99154.81;;;15.27;75.99
49102;BME280;34913;47.520;19.186;2023-08-07T04:31:59;99153.59;;;15.29;75.68
49102;BME280;34913;47.520;19.186;2023-08-07T04:34:24;99158.94;;;15.29;75.59
49102;BME280;34913;47.520;19.186;2023-08-07T04:36:49;99157.59;;;15.33;76.63
49102;BME280;34913;47.520;19.186;2023-08-07T04:39:18;99159.97;;;15.28;76.56
49102;BME280;34913;47.520;19.186;2023-08-07T04:41:44;99159.59;;;15.31;76.75
49102;BME280;34913;47.520;19.186;2023-08-07T04:44:09;99162.13;;;15.33;76.14
49102;BME280;34913;47.520;19.186;2023-08-07T04:46:34;99167.47;;;15.33;76.50
49102;BME280;34913;47.520;19.186;2023-08-07T04:49:00;99165.97;;;15.30;76.53
49102;BME280;34913;47.520;19.186;2023-08-07T04:51:26;99164.56;;;15.43;75.09
49102;BME280;34913;47.520;19.186;2023-08-07T04:53:51;99149.78;;;15.47;76.23
49102;BME280;34913;47.520;19.186;2023-08-07T04:56:17;99163.16;;;15.47;74.68
49102;BME280;34913;47.520;19.186;2023-08-07T04:58:42;99161.44;;;15.54;73.71
49102;BME280;34913;47.520;19.186;2023-08-07T05:01:08;99165.94;;;15.61;75.51
49102;BME280;34913;47.520;19.186;2023-08-07T05:03:34;99172.72;;;15.72;73.94
49102;BME280;34913;47.520;19.186;2023-08-07T05:06:02;99165.84;;;15.93;72.74
49102;BME280;34913;47.520;19.186;2023-08-07T05:08:28;99170.50;;;16.13;71.14
49102;BME280;34913;47.520;19.186;2023-08-07T05:10:54;99170.06;;;16.54;70.20
49102;BME280;34913;47.520;19.186;2023-08-07T05:13:19;99167.53;;;16.97;68.80
49102;BME280;34913;47.520;19.186;2023-08-07T05:15:47;99163.25;;;17.17;66.74
49102;BME280;34913;47.520;19.186;2023-08-07T05:18:13;99157.00;;;17.32;65.16
49102;BME280;34913;47.520;19.186;2023-08-07T05:20:39;99160.19;;;17.20;66.34
49102;BME280;34913;47.520;19.186;2023-08-07T05:23:05;99167.50;;;17.12;65.61
49102;BME280;34913;47.520;19.186;2023-08-07T05:25:30;99167.38;;;16.98;65.99
49102;BME280;34913;47.520;19.186;2023-08-07T05:27:56;99174.66;;;16.90;66.65
49102;BME280;34913;47.520;19.186;2023-08-07T05:30:21;99175.78;;;16.81;66.85
49102;BME280;34913;47.520;19.186;2023-08-07T05:32:47;99175.97;;;16.94;66.64
49102;BME280;34913;47.520;19.186;2023-08-07T05:35:12;99185.00;;;17.08;66.86
49102;BME280;34913;47.520;19.186;2023-08-07T05:37:38;99183.59;;;17.48;66.05
49102;BME280;34913;47.520;19.186;2023-08-07T05:40:04;99188.94;;;17.69;65.47
49102;BME280;34913;47.520;19.186;2023-08-07T05:42:29;99198.31;;;17.73;63.57
49102;BME280;34913;47.520;19.186;2023-08-07T05:44:55;99203.28;;;17.98;63.98
49102;BME280;34913;47.520;19.186;2023-08-07T05:47:20;99196.69;;;18.00;63.74
49102;BME280;34913;47.520;19.186;2023-08-07T05:49:46;99194.53;;;17.89;62.56
49102;BME280;34913;47.520;19.186;2023-08-07T05:52:11;99201.97;;;17.87;63.45
49102;BME280;34913;47.520;19.186;2023-08-07T05:54:36;99204.06;;;17.92;63.99
49102;BME280;34913;47.520;19.186;2023-08-07T05:57:02;99206.50;;;17.87;63.11
49102;BME280;34913;47.520;19.186;2023-08-07T05:59:28;99209.63;;;17.90;64.09
49102;BME280;34913;47.520;19.186;2023-08-07T06:01:54;99208.50;;;17.78;62.46
49102;BME280;34913;47.520;19.186;2023-08-07T06:04:20;99215.88;;;17.76;62.45
49102;BME280;34913;47.520;19.186;2023-08-07T06:06:46;99217.09;;;17.73;63.26
49102;BME280;34913;47.520;19.186;2023-08-07T06:09:12;99219.75;;;17.52;62.34
49102;BME280;34913;47.520;19.186;2023-08-07T06:11:37;99221.22;;;17.54;62.69
49102;BME280;34913;47.520;19.186;2023-08-07T06:14:03;99222.09;;;17.40;62.92
49102;BME280;34913;47.520;19.186;2023-08-07T06:16:28;99231.81;;;17.41;62.12
49102;BME280;34913;47.520;19.186;2023-08-07T06:18:54;99223.50;;;17.36;62.85
49102;BME280;34913;47.520;19.186;2023-08-07T06:21:19;99229.50;;;17.38;63.63
49102;BME280;34913;47.520;19.186;2023-08-07T06:23:47;99236.25;;;17.34;63.47
49102;BME280;34913;47.520;19.186;2023-08-07T06:26:13;99235.81;;;17.30;62.35
49102;BME280;34913;47.520;19.186;2023-08-07T06:28:38;99235.53;;;17.25;62.24
49102;BME280;34913;47.520;19.186;2023-08-07T06:31:06;99228.88;;;17.21;61.93
49102;BME280;34913;47.520;19.186;2023-08-07T06:33:32;99229.34;;;17.25;63.01
49102;BME280;34913;47.520;19.186;2023-08-07T06:35:59;99233.50;;;17.27;62.66
49102;BME280;34913;47.520;19.186;2023-08-07T06:38:24;99238.63;;;17.22;61.94
49102;BME280;34913;47.520;19.186;2023-08-07T06:40:50;99246.09;;;17.27;61.55
49102;BME280;34913;47.520;19.186;2023-08-07T06:43:15;99250.50;;;17.35;62.51
49102;BME280;34913;47.520;19.186;2023-08-07T06:45:41;99253.00;;;17.36;61.87
49102;BME280;34913;47.520;19.186;2023-08-07T06:48:06;99268.06;;;17.37;62.51
49102;BME280;34913;47.520;19.186;2023-08-07T06:50:32;99258.28;;;17.29;63.05
49102;BME280;34913;47.520;19.186;2023-08-07T06:52:57;99260.78;;;17.31;61.67
49102;BME280;34913;47.520;19.186;2023-08-07T06:55:23;99257.44;;;17.29;63.23
49102;BME280;34913;47.520;19.186;2023-08-07T06:57:48;99249.16;;;17.24;61.69
49102;BME280;34913;47.520;19.186;2023-08-07T07:00:14;99268.28;;;17.21;61.03
49102;BME280;34913;47.520;19.186;2023-08-07T07:02:40;99255.06;;;17.05;62.03
49102;BME280;34913;47.520;19.186;2023-08-07T07:05:06;99259.81;;;17.02;62.54
49102;BME280;34913;47.520;19.186;2023-08-07T07:07:31;99257.31;;;17.01;63.18
49102;BME280;34913;47.520;19.186;2023-08-07T07:09:56;99270.13;;;17.06;62.15
49102;BME280;34913;47.520;19.186;2023-08-07T07:12:26;99268.66;;;17.03;63.20
49102;BME280;34913;47.520;19.186;2023-08-07T07:14:52;99281.16;;;17.11;62.14
49102;BME280;34913;47.520;19.186;2023-08-07T07:17:18;99267.56;;;17.12;61.58
49102;BME280;34913;47.520;19.186;2023-08-07T07:19:43;99274.22;;;17.16;61.33
49102;BME280;34913;47.520;19.186;2023-08-07T07:22:09;99277.25;;;17.28;63.39
49102;BME280;34913;47.520;19.186;2023-08-07T07:24:34;99276.22;;;17.29;61.84
49102;BME280;34913;47.520;19.186;2023-08-07T07:27:00;99266.13;;;17.46;61.80
49102;BME280;34913;47.520;19.186;2023-08-07T07:29:25;99276.53;;;17.70;61.30
49102;BME280;34913;47.520;19.186;2023-08-07T07:31:51;99272.81;;;17.93;60.55
49102;BME280;34913;47.520;19.186;2023-08-07T07:34:16;99273.66;;;18.14;57.97
49102;BME280;34913;47.520;19.186;2023-08-07T07:36:42;99274.88;;;18.33;59.28
49102;BME280;34913;47.520;19.186;2023-08-07T07:39:07;99282.25;;;18.53;57.32
49102;BME280;34913;47.520;19.186;2023-08-07T07:41:33;99279.59;;;18.81;58.20
49102;BME280;34913;47.520;19.186;2023-08-07T07:43:58;99289.03;;;19.05;56.85
49102;BME280;34913;47.520;19.186;2023-08-07T07:46:25;99289.91;;;19.12;57.35
49102;BME280;34913;47.520;19.186;2023-08-07T07:48:51;99292.81;;;19.17;56.84
49102;BME280;34913;47.520;19.186;2023-08-07T07:51:16;99298.09;;;19.38;57.18
49102;BME280;34913;47.520;19.186;2023-08-07T07:53:42;99296.97;;;19.61;56.59
49102;BME280;34913;47.520;19.186;2023-08-07T07:56:07;99311.69;;;19.71;55.64
49102;BME280;34913;47.520;19.186;2023-08-07T07:58:33;99312.91;;;19.62;54.21
49102;BME280;34913;47.520;19.186;2023-08-07T08:00:58;99305.13;;;19.94;53.57
49102;BME280;34913;47.520;19.186;2023-08-07T08:03:24;99315.56;;;20.43;53.36
49102;BME280;34913;47.520;19.186;2023-08-07T08:05:50;99313.47;;;20.91;52.75
49102;BME280;34913;47.520;19.186;2023-08-07T08:08:16;99314.22;;;21.32;50.48
49102;BME280;34913;47.520;19.186;2023-08-07T08:10:43;99309.75;;;21.64;50.16
49102;BME280;34913;47.520;19.186;2023-08-07T08:13:09;99328.88;;;21.62;49.01
49102;BME280;34913;47.520;19.186;2023-08-07T08:15:35;99331.22;;;21.90;48.35
49102;BME280;34913;47.520;19.186;2023-08-07T08:18:00;99325.13;;;22.08;46.97
49102;BME280;34913;47.520;19.186;2023-08-07T08:20:26;99331.50;;;22.20;46.90
49102;BME280;34913;47.520;19.186;2023-08-07T08:22:51;99334.97;;;21.89;47.86
49102;BME280;34913;47.520;19.186;2023-08-07T08:25:17;99335.34;;;21.55;48.02
49102;BME280;34913;47.520;19.186;2023-08-07T08:27:45;99340.81;;;21.41;48.52
49102;BME280;34913;47.520;19.186;2023-08-07T08:30:11;99339.59;;;21.11;49.59
49102;BME280;34913;47.520;19.186;2023-08-07T08:32:38;99337.34;;;20.95;49.87
49102;BME280;34913;47.520;19.186;2023-08-07T08:35:05;99341.72;;;20.76;52.21
49102;BME280;34913;47.520;19.186;2023-08-07T08:37:31;99341.50;;;20.77;50.04
49102;BME280;34913;47.520;19.186;2023-08-07T08:39:56;99346.50;;;20.87;51.00
49102;BME280;34913;47.520;19.186;2023-08-07T08:42:22;99343.16;;;20.85;49.85
49102;BME280;34913;47.520;19.186;2023-08-07T08:44:58;99355.19;;;20.69;50.98
49102;BME280;34913;47.520;19.186;2023-08-07T08:47:28;99354.78;;;20.72;49.20
49102;BME280;34913;47.520;19.186;2023-08-07T08:50:11;99357.47;;;20.59;49.59
49102;BME280;34913;47.520;19.186;2023-08-07T08:52:41;99356.44;;;20.67;50.78
49102;BME280;34913;47.520;19.186;2023-08-07T08:55:07;99362.06;;;20.65;52.06
49102;BME280;34913;47.520;19.186;2023-08-07T08:57:33;99358.72;;;21.03;49.81
49102;BME280;34913;47.520;19.186;2023-08-07T09:00:00;99350.00;;;20.87;50.05
49102;BME280;34913;47.520;19.186;2023-08-07T09:02:27;99364.13;;;20.83;49.26
49102;BME280;34913;47.520;19.186;2023-08-07T09:04:53;99369.72;;;20.81;50.67
49102;BME280;34913;47.520;19.186;2023-08-07T09:07:19;99359.97;;;20.74;50.57
49102;BME280;34913;47.520;19.186;2023-08-07T09:09:45;99363.50;;;20.74;50.62
49102;BME280;34913;47.520;19.186;2023-08-07T09:12:20;99383.22;;;20.81;52.34
49102;BME280;34913;47.520;19.186;2023-08-07T09:14:57;99376.78;;;20.56;50.28
49102;BME280;34913;47.520;19.186;2023-08-07T09:17:31;99372.56;;;20.27;50.34
49102;BME280;34913;47.520;19.186;2023-08-07T09:19:58;99372.69;;;20.05;53.73
49102;BME280;34913;47.520;19.186;2023-08-07T09:22:24;99378.94;;;19.99;54.54
49102;BME280;34913;47.520;19.186;2023-08-07T09:24:50;99375.81;;;20.02;54.29
49102;BME280;34913;47.520;19.186;2023-08-07T09:27:16;99370.59;;;19.88;54.73
49102;BME280;34913;47.520;19.186;2023-08-07T09:29:43;99374.34;;;19.93;55.60
49102;BME280;34913;47.520;19.186;2023-08-07T09:32:09;99377.38;;;20.51;54.09
49102;BME280;34913;47.520;19.186;2023-08-07T09:34:38;99379.06;;;20.72;52.93
49102;BME280;34913;47.520;19.186;2023-08-07T09:37:04;99376.97;;;21.01;51.90
49102;BME280;34913;47.520;19.186;2023-08-07T09:39:30;99372.38;;;21.01;51.76
49102;BME280;34913;47.520;19.186;2023-08-07T09:41:55;99371.91;;;21.51;50.87
49102;BME280;34913;47.520;19.186;2023-08-07T09:44:21;99384.59;;;21.43;51.29
49102;BME280;34913;47.520;19.186;2023-08-07T09:46:46;99375.22;;;21.59;49.92
49102;BME280;34913;47.520;19.186;2023-08-07T09:49:12;99380.97;;;21.69;49.55
49102;BME280;34913;47.520;19.186;2023-08-07T09:51:47;99380.09;;;21.89;51.00
49102;BME280;34913;47.520;19.186;2023-08-07T09:54:13;99380.56;;;21.72;49.42
49102;BME280;34913;47.520;19.186;2023-08-07T09:56:41;99400.63;;;21.05;49.68
49102;BME280;34913;47.520;19.186;2023-08-07T09:59:07;99403.09;;;20.60;52.02
49102;BME280;34913;47.520;19.186;2023-08-07T10:01:36;99392.88;;;20.23;51.83
49102;BME280;34913;47.520;19.186;2023-08-07T10:04:02;99415.06;;;19.70;53.63
49102;BME280;34913;47.520;19.186;2023-08-07T10:06:27;99415.97;;;19.56;52.84
49102;BME280;34913;47.520;19.186;2023-08-07T10:08:54;99424.38;;;19.68;54.24
49102;BME280;34913;47.520;19.186;2023-08-07T10:11:21;99416.94;;;19.76;53.60
49102;BME280;34913;47.520;19.186;2023-08-07T10:13:47;99415.06;;;19.70;53.32
49102;BME280;34913;47.520;19.186;2023-08-07T10:16:13;99421.09;;;19.79;53.56
49102;BME280;34913;47.520;19.186;2023-08-07T10:18:39;99416.06;;;20.17;53.48
49102;BME280;34913;47.520;19.186;2023-08-07T10:21:06;99411.00;;;20.55;52.98
49102;BME280;34913;47.520;19.186;2023-08-07T10:23:34;99409.06;;;20.43;52.32
49102;BME280;34913;47.520;19.186;2023-08-07T10:26:02;99408.69;;;20.46;51.88
49102;BME280;34913;47.520;19.186;2023-08-07T10:28:30;99413.81;;;20.27;50.86
49102;BME280;34913;47.520;19.186;2023-08-07T10:30:58;99420.75;;;20.63;51.66
49102;BME280;34913;47.520;19.186;2023-08-07T10:33:24;99411.63;;;20.84;51.54
49102;BME280;34913;47.520;19.186;2023-08-07T10:35:52;99422.00;;;20.67;50.08
49102;BME280;34913;47.520;19.186;2023-08-07T10:38:19;99419.09;;;20.55;50.47
49102;BME280;34913;47.520;19.186;2023-08-07T10:41:09;99412.44;;;20.51;50.68
49102;BME280;34913;47.520;19.186;2023-08-07T10:43:40;99425.16;;;20.10;52.77
49102;BME280;34913;47.520;19.186;2023-08-07T10:46:12;99423.59;;;19.80;53.55
49102;BME280;34913;47.520;19.186;2023-08-07T10:48:39;99422.66;;;19.60;55.24
49102;BME280;34913;47.520;19.186;2023-08-07T10:51:06;99433.72;;;19.78;53.85
49102;BME280;34913;47.520;19.186;2023-08-07T10:53:35;99431.09;;;19.98;53.16
49102;BME280;34913;47.520;19.186;2023-08-07T10:56:05;99432.25;;;19.69;55.07
49102;BME280;34913;47.520;19.186;2023-08-07T10:58:37;99438.16;;;19.58;53.62
49102;BME280;34913;47.520;19.186;2023-08-07T11:03:54;99443.19;;;19.61;55.24
49102;BME280;34913;47.520;19.186;2023-08-07T11:06:25;99443.38;;;19.60;54.98
49102;BME280;34913;47.520;19.186;2023-08-07T11:08:53;99450.56;;;19.52;54.78
49102;BME280;34913;47.520;19.186;2023-08-07T11:11:19;99451.19;;;19.55;56.64
49102;BME280;34913;47.520;19.186;2023-08-07T11:13:45;99458.13;;;19.42;55.42
49102;BME280;34913;47.520;19.186;2023-08-07T11:16:11;99448.63;;;19.46;55.27
49102;BME280;34913;47.520;19.186;2023-08-07T11:18:37;99448.78;;;19.38;57.03
49102;BME280;34913;47.520;19.186;2023-08-07T11:21:06;99465.19;;;19.43;55.30
49102;BME280;34913;47.520;19.186;2023-08-07T11:23:32;99451.31;;;19.74;56.33
49102;BME280;34913;47.520;19.186;2023-08-07T11:25:57;99450.06;;;19.70;54.14
49102;BME280;34913;47.520;19.186;2023-08-07T11:28:23;99450.06;;;19.70;56.21
49102;BME280;34913;47.520;19.186;2023-08-07T11:30:53;99452.66;;;19.92;54.17
49102;BME280;34913;47.520;19.186;2023-08-07T11:33:21;99451.41;;;19.94;54.06
49102;BME280;34913;47.520;19.186;2023-08-07T11:35:47;99456.25;;;20.12;53.76
49102;BME280;34913;47.520;19.186;2023-08-07T11:38:28;99459.50;;;19.94;54.07
49102;BME280;34913;47.520;19.186;2023-08-07T11:40:57;99459.91;;;19.91;53.65
49102;BME280;34913;47.520;19.186;2023-08-07T11:43:22;99468.13;;;19.76;54.29
49102;BME280;34913;47.520;19.186;2023-08-07T11:45:47;99463.19;;;19.52;54.09
49102;BME280;34913;47.520;19.186;2023-08-07T11:48:13;99462.09;;;19.18;54.54
49102;BME280;34913;47.520;19.186;2023-08-07T11:50:39;99458.56;;;19.18;55.22
49102;BME280;34913;47.520;19.186;2023-08-07T11:53:04;99468.44;;;18.83;56.59
49102;BME280;34913;47.520;19.186;2023-08-07T11:55:30;99472.91;;;18.76;57.68
49102;BME280;34913;47.520;19.186;2023-08-07T11:57:55;99475.25;;;18.85;57.28
49102;BME280;34913;47.520;19.186;2023-08-07T12:00:24;99473.66;;;18.69;58.05
49102;BME280;34913;47.520;19.186;2023-08-07T12:02:51;99479.41;;;19.09;57.78
49102;BME280;34913;47.520;19.186;2023-08-07T12:05:17;99484.16;;;19.35;56.74
49102;BME280;34913;47.520;19.186;2023-08-07T12:07:43;99484.69;;;19.24;55.96
49102;BME280;34913;47.520;19.186;2023-08-07T12:10:11;99473.59;;;18.84;57.70
49102;BME280;34913;47.520;19.186;2023-08-07T12:12:37;99483.59;;;18.69;58.14
49102;BME280;34913;47.520;19.186;2023-08-07T12:15:07;99495.84;;;18.57;58.84
49102;BME280;34913;47.520;19.186;2023-08-07T12:17:32;99500.16;;;18.36;59.33
49102;BME280;34913;47.520;19.186;2023-08-07T12:19:58;99503.50;;;18.24;59.21
49102;BME280;34913;47.520;19.186;2023-08-07T12:22:27;99500.81;;;18.24;59.64
49102;BME280;34913;47.520;19.186;2023-08-07T12:24:53;99483.88;;;18.23;58.95
49102;BME280;34913;47.520;19.186;2023-08-07T12:27:19;99491.38;;;18.28;58.74
49102;BME280;34913;47.520;19.186;2023-08-07T12:29:45;99491.38;;;18.28;60.92
49102;BME280;34913;47.520;19.186;2023-08-07T12:32:10;99493.88;;;18.29;59.14
49102;BME280;34913;47.520;19.186;2023-08-07T12:34:36;99481.22;;;18.45;59.55
49102;BME280;34913;47.520;19.186;2023-08-07T12:37:03;99483.41;;;18.34;58.19
49102;BME280;34913;47.520;19.186;2023-08-07T12:39:29;99490.78;;;18.32;59.10
49102;BME280;34913;47.520;19.186;2023-08-07T12:41:54;99486.91;;;18.35;59.94
49102;BME280;34913;47.520;19.186;2023-08-07T12:44:20;99477.38;;;18.32;61.31
49102;BME280;34913;47.520;19.186;2023-08-07T12:46:45;99500.78;;;18.38;59.01
49102;BME280;34913;47.520;19.186;2023-08-07T12:49:11;99499.13;;;18.37;59.71
49102;BME280;34913;47.520;19.186;2023-08-07T12:51:36;99493.16;;;18.21;59.71
49102;BME280;34913;47.520;19.186;2023-08-07T12:54:01;99500.75;;;18.17;61.11